Time,TemperatureF,DewpointF,PressureIn,WindDirection,WindDirectionDegrees,WindSpeedMPH,WindSpeedGustMPH,Humidity,HourlyPrecipIn,Conditions,Clouds,dailyrainin,SoftwareType,DateUTC
2013-01-27 00:02:00,41.0,21.0,-100.00,WNW,282,7.0,13.0,44,-99.99,,,-99.99,,2013-01-27 00:02:00,
2013-01-27 00:11:00,41.0,23.0,-100.00,WNW,287,7.0,15.0,47,-99.99,,,-99.99,,2013-01-27 00:11:00,
2013-01-27 00:21:00,41.0,22.0,-100.00,WNW,291,6.0,12.0,46,-99.99,,,-99.99,,2013-01-27 00:21:00,
2013-01-27 00:31:00,41.0,22.0,-100.00,WNW,296,5.0,13.0,48,-99.99,,,-99.99,,2013-01-27 00:31:00,
2013-01-27 00:41:00,40.0,23.0,-100.00,West,261,9.0,19.0,49,-99.99,,,-99.99,,2013-01-27 00:41:00,
2013-01-27 00:51:00,40.0,21.0,-100.00,West,274,10.0,18.0,46,-99.99,,,-99.99,,2013-01-27 00:51:00,
2013-01-27 01:01:00,40.0,23.0,-100.00,West,270,6.0,16.0,52,-99.99,,,-99.99,,2013-01-27 01:01:00,
2013-01-27 01:11:00,39.0,24.0,-100.00,West,261,3.0,8.0,55,-99.99,,,-99.99,,2013-01-27 01:11:00,
2013-01-27 01:22:00,38.0,21.0,-100.00,WSW,243,9.0,19.0,50,-99.99,,,-99.99,,2013-01-27 01:22:00,
2013-01-27 01:32:00,38.0,24.0,-100.00,West,270,6.0,17.0,57,-99.99,,,-99.99,,2013-01-27 01:32:00,
2013-01-27 01:41:00,37.0,24.0,-100.00,NNW,332,4.0,8.0,58,-99.99,,,-99.99,,2013-01-27 01:41:00,
2013-01-27 01:51:00,37.0,24.0,-100.00,NNW,332,4.0,8.0,58,-99.99,,,-99.99,,2013-01-27 01:51:00,
2013-01-27 02:01:00,36.0,24.0,-100.00,NNE,31,5.0,10.0,62,-99.99,,,-99.99,,2013-01-27 02:01:00,
2013-01-27 02:11:00,36.0,23.0,-100.00,NNE,23,4.0,6.0,60,-99.99,,,-99.99,,2013-01-27 02:11:00,
2013-01-27 02:21:00,36.0,25.0,-100.00,North,3,5.0,9.0,65,-99.99,,,-99.99,,2013-01-27 02:21:00,
2013-01-27 02:31:00,35.0,24.0,-100.00,NNE,13,4.0,8.0,63,-99.99,,,-99.99,,2013-01-27 02:31:00,
2013-01-27 02:41:00,35.0,25.0,-100.00,NE,41,6.0,11.0,65,-99.99,,,-99.99,,2013-01-27 02:41:00,
2013-01-27 02:52:00,35.0,24.0,-100.00,North,8,3.0,6.0,64,-99.99,,,-99.99,,2013-01-27 02:52:00,
2013-01-27 03:01:00,35.0,24.0,-100.00,North,8,3.0,6.0,64,-99.99,,,-99.99,,2013-01-27 03:01:00,
2013-01-27 03:11:00,34.0,23.0,-100.00,NNE,24,4.0,8.0,62,-99.99,,,-99.99,,2013-01-27 03:11:00,
2013-01-27 03:21:00,34.0,24.0,-100.00,NNE,16,4.0,7.0,66,-99.99,,,-99.99,,2013-01-27 03:21:00,
2013-01-27 03:31:00,34.0,23.0,-100.00,North,8,3.0,9.0,65,-99.99,,,-99.99,,2013-01-27 03:31:00,
2013-01-27 03:41:00,34.0,24.0,-100.00,NNE,17,4.0,7.0,67,-99.99,,,-99.99,,2013-01-27 03:41:00,
2013-01-27 03:51:00,33.0,23.0,-100.00,NNE,28,3.0,5.0,66,-99.99,,,-99.99,,2013-01-27 03:51:00,
2013-01-27 04:01:00,32.0,24.0,-100.00,NE,52,4.0,6.0,70,-99.99,,,-99.99,,2013-01-27 04:01:00,
2013-01-27 04:11:00,33.0,24.0,-100.00,North,8,3.0,6.0,71,-99.99,,,-99.99,,2013-01-27 04:11:00,
2013-01-27 04:21:00,33.0,24.0,-100.00,NNE,20,4.0,8.0,70,-99.99,,,-99.99,,2013-01-27 04:21:00,
2013-01-27 04:31:00,32.0,23.0,-100.00,NNE,25,2.0,5.0,68,-99.99,,,-99.99,,2013-01-27 04:31:00,
2013-01-27 04:41:00,33.0,23.0,-100.00,ENE,59,3.0,7.0,66,-99.99,,,-99.99,,2013-01-27 04:41:00,
2013-01-27 04:51:00,33.0,22.0,-100.00,North,8,4.0,10.0,65,-99.99,,,-99.99,,2013-01-27 04:51:00,
2013-01-27 05:03:00,33.0,23.0,-100.00,NNW,336,3.0,8.0,67,-99.99,,,-99.99,,2013-01-27 05:03:00,
2013-01-27 05:11:00,31.0,23.0,-100.00,ENE,75,5.0,9.0,70,-99.99,,,-99.99,,2013-01-27 05:11:00,
2013-01-27 05:22:00,32.0,22.0,-100.00,SE,145,2.0,6.0,66,-99.99,,,-99.99,,2013-01-27 05:22:00,
2013-01-27 05:31:00,31.0,23.0,-100.00,SSE,152,2.0,4.0,71,-99.99,,,-99.99,,2013-01-27 05:31:00,
2013-01-27 05:41:00,32.0,22.0,-100.00,ESE,110,1.0,3.0,67,-99.99,,,-99.99,,2013-01-27 05:41:00,
2013-01-27 05:52:00,34.0,23.0,-100.00,WSW,241,6.0,14.0,64,-99.99,,,-99.99,,2013-01-27 05:52:00,
2013-01-27 06:01:00,34.0,22.0,-100.00,WSW,237,6.0,13.0,62,-99.99,,,-99.99,,2013-01-27 06:01:00,
2013-01-27 06:11:00,33.0,23.0,-100.00,NNE,13,2.0,5.0,65,-99.99,,,-99.99,,2013-01-27 06:11:00,
2013-01-27 06:21:00,33.0,23.0,-100.00,WNW,299,4.0,11.0,67,-99.99,,,-99.99,,2013-01-27 06:21:00,
2013-01-27 06:31:00,34.0,23.0,-100.00,WSW,239,3.0,6.0,66,-99.99,,,-99.99,,2013-01-27 06:31:00,
2013-01-27 06:41:00,33.0,24.0,-100.00,North,354,4.0,8.0,67,-99.99,,,-99.99,,2013-01-27 06:41:00,
2013-01-27 06:51:00,33.0,21.0,-100.00,SW,233,8.0,16.0,59,-99.99,,,-99.99,,2013-01-27 06:51:00,
2013-01-27 07:01:00,34.0,22.0,-100.00,WSW,246,8.0,14.0,63,-99.99,,,-99.99,,2013-01-27 07:01:00,
2013-01-27 07:13:00,34.0,21.0,-100.00,WSW,244,11.0,22.0,59,-99.99,,,-99.99,,2013-01-27 07:13:00,
2013-01-27 07:21:00,33.0,20.0,-100.00,WSW,241,9.0,15.0,58,-99.99,,,-99.99,,2013-01-27 07:21:00,
2013-01-27 07:31:00,33.0,20.0,-100.00,West,264,9.0,17.0,59,-99.99,,,-99.99,,2013-01-27 07:31:00,
2013-01-27 07:41:00,33.0,21.0,-100.00,WSW,247,9.0,17.0,61,-99.99,,,-99.99,,2013-01-27 07:41:00,
2013-01-27 07:51:00,33.0,21.0,-100.00,West,271,5.0,14.0,62,-99.99,,,-99.99,,2013-01-27 07:51:00,
2013-01-27 08:01:00,32.0,21.0,-100.00,West,277,5.0,13.0,64,-99.99,,,-99.99,,2013-01-27 08:01:00,
2013-01-27 08:11:00,32.0,22.0,-100.00,WSW,254,5.0,12.0,65,-99.99,,,-99.99,,2013-01-27 08:11:00,
2013-01-27 08:21:00,32.0,22.0,-100.00,North,8,2.0,5.0,65,-99.99,,,-99.99,,2013-01-27 08:21:00,
2013-01-27 08:31:00,32.0,22.0,-100.00,NNE,27,3.0,7.0,67,-99.99,,,-99.99,,2013-01-27 08:31:00,
2013-01-27 08:41:00,32.0,21.0,-100.00,North,1,4.0,6.0,64,-99.99,,,-99.99,,2013-01-27 08:41:00,
2013-01-27 08:52:00,31.0,22.0,-100.00,North,354,3.0,7.0,69,-99.99,,,-99.99,,2013-01-27 08:52:00,
2013-01-27 09:02:00,31.0,23.0,-100.00,NNE,17,5.0,11.0,74,-99.99,,,-99.99,,2013-01-27 09:02:00,
2013-01-27 09:11:00,30.0,23.0,-100.00,NNE,16,3.0,5.0,76,-99.99,,,-99.99,,2013-01-27 09:11:00,
2013-01-27 09:21:00,30.0,22.0,-100.00,East,88,3.0,9.0,71,-99.99,,,-99.99,,2013-01-27 09:21:00,
2013-01-27 09:32:00,31.0,23.0,-100.00,NNW,346,5.0,12.0,72,-99.99,,,-99.99,,2013-01-27 09:32:00,
2013-01-27 09:41:00,29.0,24.0,-100.00,NNE,31,4.0,8.0,80,-99.99,,,-99.99,,2013-01-27 09:41:00,
2013-01-27 09:51:00,30.0,23.0,-100.00,WSW,241,10.0,18.0,73,-99.99,,,-99.99,,2013-01-27 09:51:00,
2013-01-27 10:01:00,30.0,21.0,-100.00,NE,44,7.0,14.0,67,-99.99,,,-99.99,,2013-01-27 10:01:00,
2013-01-27 10:11:00,30.0,20.0,-100.00,WNW,282,5.0,14.0,66,-99.99,,,-99.99,,2013-01-27 10:11:00,
2013-01-27 10:21:00,30.0,20.0,-100.00,WSW,243,5.0,12.0,65,-99.99,,,-99.99,,2013-01-27 10:21:00,
2013-01-27 10:31:00,29.0,19.0,-100.00,NE,38,4.0,10.0,65,-99.99,,,-99.99,,2013-01-27 10:31:00,
2013-01-27 10:41:00,29.0,16.0,-100.00,West,260,6.0,13.0,57,-99.99,,,-99.99,,2013-01-27 10:41:00,
2013-01-27 10:51:00,29.0,16.0,-100.00,West,260,6.0,13.0,57,-99.99,,,-99.99,,2013-01-27 10:51:00,
2013-01-27 11:01:00,29.0,20.0,-100.00,West,265,5.0,14.0,67,-99.99,,,-99.99,,2013-01-27 11:01:00,
2013-01-27 11:11:00,29.0,17.0,-100.00,WSW,241,9.0,16.0,61,-99.99,,,-99.99,,2013-01-27 11:11:00,
2013-01-27 11:21:00,28.0,15.0,-100.00,NNE,13,4.0,8.0,59,-99.99,,,-99.99,,2013-01-27 11:21:00,
2013-01-27 11:32:00,28.0,15.0,-100.00,NNE,13,4.0,8.0,59,-99.99,,,-99.99,,2013-01-27 11:32:00,
2013-01-27 11:42:00,27.0,14.0,-100.00,NE,34,5.0,8.0,57,-99.99,,,-99.99,,2013-01-27 11:42:00,
2013-01-27 11:52:00,27.0,11.0,-100.00,NNE,28,3.0,5.0,52,-99.99,,,-99.99,,2013-01-27 11:52:00,
2013-01-27 12:02:00,26.0,11.0,-100.00,North,359,3.0,7.0,51,-99.99,,,-99.99,,2013-01-27 12:02:00,
2013-01-27 12:11:00,26.0,10.0,-100.00,NE,45,5.0,8.0,49,-99.99,,,-99.99,,2013-01-27 12:11:00,
2013-01-27 12:21:00,26.0,11.0,-100.00,NE,34,3.0,6.0,52,-99.99,,,-99.99,,2013-01-27 12:21:00,
2013-01-27 12:32:00,26.0,11.0,-100.00,NNE,23,2.0,5.0,53,-99.99,,,-99.99,,2013-01-27 12:32:00,
2013-01-27 12:42:00,26.0,13.0,-100.00,North,1,2.0,3.0,57,-99.99,,,-99.99,,2013-01-27 12:42:00,
2013-01-27 12:52:00,26.0,14.0,-100.00,NW,308,2.0,4.0,60,-99.99,,,-99.99,,2013-01-27 12:52:00,
2013-01-27 13:02:00,25.0,12.0,-100.00,SSW,199,0.0,0.0,57,-99.99,,,-99.99,,2013-01-27 13:02:00,
2013-01-27 13:11:00,26.0,17.0,-100.00,West,272,4.0,6.0,67,-99.99,,,-99.99,,2013-01-27 13:11:00,
2013-01-27 13:22:00,26.0,17.0,-100.00,West,272,4.0,6.0,67,-99.99,,,-99.99,,2013-01-27 13:22:00,
2013-01-27 13:32:00,26.0,17.0,-100.00,West,272,4.0,6.0,67,-99.99,,,-99.99,,2013-01-27 13:32:00,
2013-01-27 13:42:00,26.0,17.0,-100.00,West,272,4.0,6.0,67,-99.99,,,-99.99,,2013-01-27 13:42:00,
2013-01-27 15:53:00,25.0,22.0,-100.00,WNW,301,6.0,11.0,89,-99.99,,,-99.99,,2013-01-27 15:53:00,
2013-01-27 16:02:00,24.0,20.0,-100.00,NW,311,4.0,6.0,84,-99.99,,,-99.99,,2013-01-27 16:02:00,
2013-01-27 16:11:00,24.0,20.0,-100.00,NW,311,4.0,6.0,84,-99.99,,,-99.99,,2013-01-27 16:11:00,
2013-01-27 16:21:00,25.0,21.0,-100.00,West,278,4.0,6.0,85,-99.99,,,-99.99,,2013-01-27 16:21:00,
2013-01-27 16:32:00,25.0,23.0,-100.00,West,271,3.0,6.0,90,-99.99,,,-99.99,,2013-01-27 16:32:00,
2013-01-27 16:42:00,24.0,22.0,-100.00,West,265,2.0,6.0,90,-99.99,,,-99.99,,2013-01-27 16:42:00,
2013-01-27 16:52:00,25.0,22.0,-100.00,West,280,4.0,9.0,91,-99.99,,,-99.99,,2013-01-27 16:52:00,
2013-01-27 17:01:00,24.0,21.0,-100.00,West,278,3.0,5.0,90,-99.99,,,-99.99,,2013-01-27 17:01:00,
2013-01-27 17:11:00,24.0,22.0,-100.00,WNW,285,4.0,6.0,92,-99.99,,,-99.99,,2013-01-27 17:11:00,
2013-01-27 17:21:00,24.0,22.0,-100.00,NW,306,6.0,10.0,92,-99.99,,,-99.99,,2013-01-27 17:21:00,
2013-01-27 17:32:00,24.0,21.0,-100.00,WNW,301,4.0,8.0,87,-99.99,,,-99.99,,2013-01-27 17:32:00,
2013-01-27 17:42:00,25.0,21.0,-100.00,NW,325,3.0,5.0,83,-99.99,,,-99.99,,2013-01-27 17:42:00,
2013-01-27 17:52:00,25.0,20.0,-100.00,NW,323,4.0,6.0,79,-99.99,,,-99.99,,2013-01-27 17:52:00,
2013-01-27 18:02:00,25.0,19.0,-100.00,NW,313,6.0,9.0,78,-99.99,,,-99.99,,2013-01-27 18:02:00,
2013-01-27 18:11:00,25.0,19.0,-100.00,NW,313,6.0,9.0,78,-99.99,,,-99.99,,2013-01-27 18:11:00,
2013-01-27 18:22:00,26.0,20.0,-100.00,NW,311,8.0,11.0,79,-99.99,,,-99.99,,2013-01-27 18:22:00,
2013-01-27 18:32:00,25.0,19.0,-100.00,NW,316,7.0,12.0,77,-99.99,,,-99.99,,2013-01-27 18:32:00,
2013-01-27 18:42:00,25.0,18.0,-100.00,NW,320,5.0,7.0,74,-99.99,,,-99.99,,2013-01-27 18:42:00,
2013-01-27 18:51:00,25.0,19.0,-100.00,NW,304,7.0,11.0,77,-99.99,,,-99.99,,2013-01-27 18:51:00,
2013-01-27 19:01:00,25.0,19.0,-100.00,NW,309,5.0,8.0,77,-99.99,,,-99.99,,2013-01-27 19:01:00,
2013-01-27 19:11:00,26.0,20.0,-100.00,NW,306,6.0,10.0,79,-99.99,,,-99.99,,2013-01-27 19:11:00,
2013-01-27 19:21:00,25.0,19.0,-100.00,NW,304,5.0,8.0,77,-99.99,,,-99.99,,2013-01-27 19:21:00,
2013-01-27 19:32:00,26.0,19.0,-100.00,WNW,301,7.0,13.0,74,-99.99,,,-99.99,,2013-01-27 19:32:00,
2013-01-27 19:41:00,26.0,19.0,-100.00,NW,315,6.0,9.0,73,-99.99,,,-99.99,,2013-01-27 19:41:00,
2013-01-27 19:51:00,26.0,17.0,-100.00,NW,313,5.0,8.0,69,-99.99,,,-99.99,,2013-01-27 19:51:00,
2013-01-27 20:02:00,27.0,19.0,-100.00,NW,316,5.0,8.0,70,-99.99,,,-99.99,,2013-01-27 20:02:00,
2013-01-27 20:11:00,27.0,18.0,-100.00,NW,322,5.0,7.0,67,-99.99,,,-99.99,,2013-01-27 20:11:00,
2013-01-27 20:22:00,27.0,18.0,-100.00,NW,311,5.0,8.0,69,-99.99,,,-99.99,,2013-01-27 20:22:00,
2013-01-27 20:32:00,27.0,18.0,-100.00,NW,322,5.0,7.0,69,-99.99,,,-99.99,,2013-01-27 20:32:00,
2013-01-27 20:41:00,27.0,18.0,-100.00,NNW,332,4.0,6.0,67,-99.99,,,-99.99,,2013-01-27 20:41:00,
2013-01-27 20:52:00,27.0,17.0,-100.00,NW,325,4.0,6.0,66,-99.99,,,-99.99,,2013-01-27 20:52:00,
2013-01-27 21:01:00,28.0,17.0,-100.00,NW,313,5.0,7.0,64,-99.99,,,-99.99,,2013-01-27 21:01:00,
2013-01-27 21:11:00,28.0,16.0,-100.00,NW,320,5.0,7.0,60,-99.99,,,-99.99,,2013-01-27 21:11:00,
2013-01-27 21:22:00,28.0,16.0,-100.00,WNW,299,6.0,8.0,60,-99.99,,,-99.99,,2013-01-27 21:22:00,
2013-01-27 21:32:00,28.0,15.0,-100.00,NW,323,4.0,6.0,57,-99.99,,,-99.99,,2013-01-27 21:32:00,
2013-01-27 21:42:00,29.0,15.0,-100.00,NW,311,5.0,8.0,56,-99.99,,,-99.99,,2013-01-27 21:42:00,
2013-01-27 21:52:00,28.0,14.0,-100.00,NNW,335,4.0,6.0,56,-99.99,,,-99.99,,2013-01-27 21:52:00,
2013-01-27 22:01:00,28.0,16.0,-100.00,NNW,333,4.0,6.0,60,-99.99,,,-99.99,,2013-01-27 22:01:00,
2013-01-27 22:11:00,28.0,15.0,-100.00,NW,322,4.0,7.0,57,-99.99,,,-99.99,,2013-01-27 22:11:00,
2013-01-27 22:21:00,28.0,14.0,-100.00,NW,322,5.0,6.0,54,-99.99,,,-99.99,,2013-01-27 22:21:00,
2013-01-27 22:32:00,28.0,14.0,-100.00,NW,322,5.0,6.0,54,-99.99,,,-99.99,,2013-01-27 22:32:00,
2013-01-27 22:42:00,29.0,15.0,-100.00,NW,316,5.0,8.0,56,-99.99,,,-99.99,,2013-01-27 22:42:00,
2013-01-27 22:51:00,29.0,15.0,-100.00,NW,319,4.0,6.0,57,-99.99,,,-99.99,,2013-01-27 22:51:00,
2013-01-27 23:02:00,29.0,12.0,-100.00,NNW,329,3.0,5.0,49,-99.99,,,-99.99,,2013-01-27 23:02:00,
2013-01-27 23:11:00,29.0,13.0,-100.00,NW,311,5.0,7.0,51,-99.99,,,-99.99,,2013-01-27 23:11:00,
2013-01-27 23:21:00,28.0,16.0,-100.00,NW,320,4.0,6.0,59,-99.99,,,-99.99,,2013-01-27 23:21:00,
2013-01-27 23:32:00,28.0,12.0,-100.00,North,349,2.0,8.0,50,-99.99,,,-99.99,,2013-01-27 23:32:00,
2013-01-27 23:41:00,29.0,12.0,-100.00,NW,319,5.0,6.0,48,-99.99,,,-99.99,,2013-01-27 23:41:00,
2013-01-27 23:52:00,29.0,13.0,-100.00,NW,322,5.0,8.0,51,-99.99,,,-99.99,,2013-01-27 23:52:00,